Terminal Aerodrome Forecast
Issued by NWS

Home | Current Version | Previous Version | Graphics & Text | Print | Product List | Glossary On
Versions: 1 2 3 4 5 6 7 8 9 10 11 12 13 14 15 16 17 18 19
000
FTUS41 KCLE 151120
TAFFDY
TAF
KFDY 151120Z 1512/1612 19010KT P6SM OVC045
     FM151700 24014G22KT P6SM OVC015
     FM152200 25012KT P6SM SCT025 OVC035=

USA.gov is the U.S. government's official web portal to all federal, state and local government web resources and services.